sensor_id;sensor_type;location;lat;lon;timestamp;P1;durP1;ratioP1;P2;durP2;ratioP2
34783;SDS011;20998;51.388;7.032;2023-05-10T00:02:09;7.80;;;4.07;;
34783;SDS011;20998;51.388;7.032;2023-05-10T00:04:35;9.40;;;4.47;;
34783;SDS011;20998;51.388;7.032;2023-05-10T00:07:01;9.17;;;4.87;;
34783;SDS011;20998;51.388;7.032;2023-05-10T00:09:27;6.83;;;4.07;;
34783;SDS011;20998;51.388;7.032;2023-05-10T00:11:53;8.70;;;4.00;;
34783;SDS011;20998;51.388;7.032;2023-05-10T00:14:19;11.83;;;5.03;;
34783;SDS011;20998;51.388;7.032;2023-05-10T00:16:45;8.60;;;4.73;;
34783;SDS011;20998;51.388;7.032;2023-05-10T00:19:11;11.70;;;5.20;;
34783;SDS011;20998;51.388;7.032;2023-05-10T00:21:37;8.87;;;4.40;;
34783;SDS011;20998;51.388;7.032;2023-05-10T00:24:03;8.40;;;4.63;;
34783;SDS011;20998;51.388;7.032;2023-05-10T00:26:29;7.50;;;4.33;;
34783;SDS011;20998;51.388;7.032;2023-05-10T00:28:55;11.37;;;4.80;;
34783;SDS011;20998;51.388;7.032;2023-05-10T00:31:22;8.60;;;4.50;;
34783;SDS011;20998;51.388;7.032;2023-05-10T00:33:48;10.00;;;4.43;;
34783;SDS011;20998;51.388;7.032;2023-05-10T00:36:14;7.90;;;3.97;;
34783;SDS011;20998;51.388;7.032;2023-05-10T00:38:39;9.07;;;4.77;;
34783;SDS011;20998;51.388;7.032;2023-05-10T00:41:05;12.50;;;5.03;;
34783;SDS011;20998;51.388;7.032;2023-05-10T00:43:31;9.57;;;4.80;;
34783;SDS011;20998;51.388;7.032;2023-05-10T00:45:57;8.40;;;4.73;;
34783;SDS011;20998;51.388;7.032;2023-05-10T00:48:23;12.03;;;5.63;;
34783;SDS011;20998;51.388;7.032;2023-05-10T00:50:49;11.83;;;5.13;;
34783;SDS011;20998;51.388;7.032;2023-05-10T00:53:15;9.93;;;5.33;;
34783;SDS011;20998;51.388;7.032;2023-05-10T00:55:41;10.20;;;5.40;;
34783;SDS011;20998;51.388;7.032;2023-05-10T00:58:07;10.47;;;5.43;;
34783;SDS011;20998;51.388;7.032;2023-05-10T01:00:34;7.97;;;4.77;;
34783;SDS011;20998;51.388;7.032;2023-05-10T01:03:02;10.13;;;5.80;;
34783;SDS011;20998;51.388;7.032;2023-05-10T01:05:28;10.50;;;5.17;;
34783;SDS011;20998;51.388;7.032;2023-05-10T01:07:54;11.57;;;6.10;;
34783;SDS011;20998;51.388;7.032;2023-05-10T01:10:20;9.97;;;5.60;;
34783;SDS011;20998;51.388;7.032;2023-05-10T01:12:46;11.13;;;6.23;;
34783;SDS011;20998;51.388;7.032;2023-05-10T01:15:13;11.60;;;6.33;;
34783;SDS011;20998;51.388;7.032;2023-05-10T01:17:40;13.03;;;6.03;;
34783;SDS011;20998;51.388;7.032;2023-05-10T01:20:09;11.73;;;6.27;;
34783;SDS011;20998;51.388;7.032;2023-05-10T01:25:13;13.87;;;5.87;;
34783;SDS011;20998;51.388;7.032;2023-05-10T01:28:08;10.13;;;5.77;;
34783;SDS011;20998;51.388;7.032;2023-05-10T01:30:50;13.50;;;6.50;;
34783;SDS011;20998;51.388;7.032;2023-05-10T01:38:51;13.03;;;6.37;;
34783;SDS011;20998;51.388;7.032;2023-05-10T01:44:29;12.10;;;6.30;;
34783;SDS011;20998;51.388;7.032;2023-05-10T01:47:06;15.40;;;6.67;;
34783;SDS011;20998;51.388;7.032;2023-05-10T01:49:54;11.20;;;6.70;;
34783;SDS011;20998;51.388;7.032;2023-05-10T01:52:30;14.83;;;6.83;;
34783;SDS011;20998;51.388;7.032;2023-05-10T01:55:16;14.60;;;6.57;;
34783;SDS011;20998;51.388;7.032;2023-05-10T01:57:43;18.23;;;7.10;;
34783;SDS011;20998;51.388;7.032;2023-05-10T02:00:11;18.00;;;7.10;;
34783;SDS011;20998;51.388;7.032;2023-05-10T02:02:42;12.27;;;6.83;;
34783;SDS011;20998;51.388;7.032;2023-05-10T02:05:11;17.10;;;6.67;;
34783;SDS011;20998;51.388;7.032;2023-05-10T02:07:39;22.20;;;6.27;;
34783;SDS011;20998;51.388;7.032;2023-05-10T02:10:06;11.63;;;7.07;;
34783;SDS011;20998;51.388;7.032;2023-05-10T02:12:36;12.63;;;6.97;;
34783;SDS011;20998;51.388;7.032;2023-05-10T02:15:06;14.03;;;7.20;;
34783;SDS011;20998;51.388;7.032;2023-05-10T02:17:33;14.17;;;8.10;;
34783;SDS011;20998;51.388;7.032;2023-05-10T02:20:02;11.97;;;7.00;;
34783;SDS011;20998;51.388;7.032;2023-05-10T02:22:29;14.63;;;7.40;;
34783;SDS011;20998;51.388;7.032;2023-05-10T02:24:55;16.50;;;7.67;;
34783;SDS011;20998;51.388;7.032;2023-05-10T02:27:23;15.27;;;7.47;;
34783;SDS011;20998;51.388;7.032;2023-05-10T02:29:49;17.13;;;7.27;;
34783;SDS011;20998;51.388;7.032;2023-05-10T02:32:16;17.60;;;8.20;;
34783;SDS011;20998;51.388;7.032;2023-05-10T02:34:44;13.70;;;6.90;;
34783;SDS011;20998;51.388;7.032;2023-05-10T02:37:11;13.63;;;7.17;;
34783;SDS011;20998;51.388;7.032;2023-05-10T02:39:39;12.33;;;7.27;;
34783;SDS011;20998;51.388;7.032;2023-05-10T02:42:09;14.03;;;7.60;;
34783;SDS011;20998;51.388;7.032;2023-05-10T02:44:40;13.53;;;7.60;;
34783;SDS011;20998;51.388;7.032;2023-05-10T02:47:06;16.07;;;6.87;;
34783;SDS011;20998;51.388;7.032;2023-05-10T02:49:32;20.17;;;7.60;;
34783;SDS011;20998;51.388;7.032;2023-05-10T02:52:00;17.83;;;8.03;;
34783;SDS011;20998;51.388;7.032;2023-05-10T02:54:29;21.10;;;7.80;;
34783;SDS011;20998;51.388;7.032;2023-05-10T02:56:58;15.47;;;7.30;;
34783;SDS011;20998;51.388;7.032;2023-05-10T02:59:26;24.10;;;8.37;;
34783;SDS011;20998;51.388;7.032;2023-05-10T03:01:52;13.43;;;7.07;;
34783;SDS011;20998;51.388;7.032;2023-05-10T03:04:18;17.57;;;8.30;;
34783;SDS011;20998;51.388;7.032;2023-05-10T03:06:44;13.77;;;7.00;;
34783;SDS011;20998;51.388;7.032;2023-05-10T03:09:10;23.17;;;7.57;;
34783;SDS011;20998;51.388;7.032;2023-05-10T03:11:56;14.90;;;7.63;;
34783;SDS011;20998;51.388;7.032;2023-05-10T03:20:04;14.93;;;6.60;;
34783;SDS011;20998;51.388;7.032;2023-05-10T03:22:44;15.83;;;7.70;;
34783;SDS011;20998;51.388;7.032;2023-05-10T03:25:12;13.37;;;7.10;;
34783;SDS011;20998;51.388;7.032;2023-05-10T03:27:41;16.33;;;7.37;;
34783;SDS011;20998;51.388;7.032;2023-05-10T03:30:10;17.67;;;8.13;;
34783;SDS011;20998;51.388;7.032;2023-05-10T03:32:37;20.83;;;7.90;;
34783;SDS011;20998;51.388;7.032;2023-05-10T03:35:07;17.77;;;8.27;;
34783;SDS011;20998;51.388;7.032;2023-05-10T03:37:33;16.93;;;7.80;;
34783;SDS011;20998;51.388;7.032;2023-05-10T03:40:00;15.83;;;8.23;;
34783;SDS011;20998;51.388;7.032;2023-05-10T03:42:26;16.60;;;7.93;;
34783;SDS011;20998;51.388;7.032;2023-05-10T03:44:51;20.03;;;9.93;;
34783;SDS011;20998;51.388;7.032;2023-05-10T03:47:17;19.30;;;8.77;;
34783;SDS011;20998;51.388;7.032;2023-05-10T03:49:43;19.87;;;8.83;;
34783;SDS011;20998;51.388;7.032;2023-05-10T03:52:09;38.73;;;9.50;;
34783;SDS011;20998;51.388;7.032;2023-05-10T03:54:35;23.40;;;9.93;;
34783;SDS011;20998;51.388;7.032;2023-05-10T03:57:01;23.93;;;9.60;;
34783;SDS011;20998;51.388;7.032;2023-05-10T03:59:28;19.00;;;8.70;;
34783;SDS011;20998;51.388;7.032;2023-05-10T04:01:54;18.23;;;9.20;;
34783;SDS011;20998;51.388;7.032;2023-05-10T04:04:20;27.30;;;9.67;;
34783;SDS011;20998;51.388;7.032;2023-05-10T04:06:46;21.30;;;8.53;;
34783;SDS011;20998;51.388;7.032;2023-05-10T04:09:12;18.87;;;8.97;;
34783;SDS011;20998;51.388;7.032;2023-05-10T04:11:39;23.93;;;9.07;;
34783;SDS011;20998;51.388;7.032;2023-05-10T04:14:05;20.60;;;8.80;;
34783;SDS011;20998;51.388;7.032;2023-05-10T04:16:31;28.97;;;9.60;;
34783;SDS011;20998;51.388;7.032;2023-05-10T04:18:57;27.70;;;10.20;;
34783;SDS011;20998;51.388;7.032;2023-05-10T04:21:23;28.23;;;10.23;;
34783;SDS011;20998;51.388;7.032;2023-05-10T04:23:49;26.30;;;10.40;;
34783;SDS011;20998;51.388;7.032;2023-05-10T04:26:14;29.70;;;11.37;;
34783;SDS011;20998;51.388;7.032;2023-05-10T04:28:40;37.60;;;11.70;;
34783;SDS011;20998;51.388;7.032;2023-05-10T04:31:07;28.43;;;10.20;;
34783;SDS011;20998;51.388;7.032;2023-05-10T04:33:34;29.13;;;10.03;;
34783;SDS011;20998;51.388;7.032;2023-05-10T04:36:00;29.10;;;9.97;;
34783;SDS011;20998;51.388;7.032;2023-05-10T04:38:26;32.80;;;10.73;;
34783;SDS011;20998;51.388;7.032;2023-05-10T04:40:53;33.27;;;12.20;;
34783;SDS011;20998;51.388;7.032;2023-05-10T04:43:19;33.03;;;12.33;;
34783;SDS011;20998;51.388;7.032;2023-05-10T04:45:45;38.57;;;11.03;;
34783;SDS011;20998;51.388;7.032;2023-05-10T04:48:11;34.30;;;11.47;;
34783;SDS011;20998;51.388;7.032;2023-05-10T04:50:37;27.87;;;11.27;;
34783;SDS011;20998;51.388;7.032;2023-05-10T04:53:03;30.90;;;10.67;;
34783;SDS011;20998;51.388;7.032;2023-05-10T04:55:29;30.43;;;11.17;;
34783;SDS011;20998;51.388;7.032;2023-05-10T04:57:55;34.57;;;11.67;;
34783;SDS011;20998;51.388;7.032;2023-05-10T05:00:22;36.70;;;11.63;;
34783;SDS011;20998;51.388;7.032;2023-05-10T05:02:48;38.97;;;11.80;;
34783;SDS011;20998;51.388;7.032;2023-05-10T05:05:14;37.17;;;12.77;;
34783;SDS011;20998;51.388;7.032;2023-05-10T05:07:40;39.00;;;14.03;;
34783;SDS011;20998;51.388;7.032;2023-05-10T05:10:06;38.37;;;12.50;;
34783;SDS011;20998;51.388;7.032;2023-05-10T05:12:33;35.27;;;12.93;;
34783;SDS011;20998;51.388;7.032;2023-05-10T05:14:59;44.27;;;14.30;;
34783;SDS011;20998;51.388;7.032;2023-05-10T05:17:25;42.70;;;14.83;;
34783;SDS011;20998;51.388;7.032;2023-05-10T05:19:51;39.83;;;14.87;;
34783;SDS011;20998;51.388;7.032;2023-05-10T05:22:17;31.13;;;13.10;;
34783;SDS011;20998;51.388;7.032;2023-05-10T05:24:44;47.70;;;13.23;;
34783;SDS011;20998;51.388;7.032;2023-05-10T05:27:10;45.43;;;15.00;;
34783;SDS011;20998;51.388;7.032;2023-05-10T05:29:36;48.40;;;15.17;;
34783;SDS011;20998;51.388;7.032;2023-05-10T05:32:02;47.73;;;14.97;;
34783;SDS011;20998;51.388;7.032;2023-05-10T05:34:28;52.37;;;14.80;;
34783;SDS011;20998;51.388;7.032;2023-05-10T05:36:54;53.80;;;16.03;;
34783;SDS011;20998;51.388;7.032;2023-05-10T05:39:20;47.63;;;15.57;;
34783;SDS011;20998;51.388;7.032;2023-05-10T05:41:47;42.23;;;14.07;;
34783;SDS011;20998;51.388;7.032;2023-05-10T05:44:13;52.57;;;15.47;;
34783;SDS011;20998;51.388;7.032;2023-05-10T05:46:38;50.43;;;15.87;;
34783;SDS011;20998;51.388;7.032;2023-05-10T05:49:04;47.20;;;15.93;;
34783;SDS011;20998;51.388;7.032;2023-05-10T05:51:30;52.97;;;16.53;;
34783;SDS011;20998;51.388;7.032;2023-05-10T05:53:56;49.63;;;16.30;;
34783;SDS011;20998;51.388;7.032;2023-05-10T05:56:22;49.10;;;14.73;;
34783;SDS011;20998;51.388;7.032;2023-05-10T05:58:52;44.60;;;14.83;;
34783;SDS011;20998;51.388;7.032;2023-05-10T06:01:18;53.50;;;17.57;;
34783;SDS011;20998;51.388;7.032;2023-05-10T06:03:44;48.00;;;14.93;;
34783;SDS011;20998;51.388;7.032;2023-05-10T06:06:10;47.90;;;15.73;;
34783;SDS011;20998;51.388;7.032;2023-05-10T06:08:36;49.53;;;15.80;;
34783;SDS011;20998;51.388;7.032;2023-05-10T06:11:01;46.07;;;15.30;;
34783;SDS011;20998;51.388;7.032;2023-05-10T06:13:29;50.17;;;15.90;;
34783;SDS011;20998;51.388;7.032;2023-05-10T06:16:00;57.67;;;15.90;;
34783;SDS011;20998;51.388;7.032;2023-05-10T06:18:27;64.80;;;15.90;;
34783;SDS011;20998;51.388;7.032;2023-05-10T06:20:53;46.13;;;15.07;;
34783;SDS011;20998;51.388;7.032;2023-05-10T06:23:19;49.77;;;16.37;;
34783;SDS011;20998;51.388;7.032;2023-05-10T06:25:45;57.20;;;16.33;;
34783;SDS011;20998;51.388;7.032;2023-05-10T06:28:11;60.03;;;17.50;;
34783;SDS011;20998;51.388;7.032;2023-05-10T06:30:37;49.83;;;16.40;;
34783;SDS011;20998;51.388;7.032;2023-05-10T06:33:03;48.00;;;15.57;;
34783;SDS011;20998;51.388;7.032;2023-05-10T06:35:29;45.77;;;16.10;;
34783;SDS011;20998;51.388;7.032;2023-05-10T06:37:58;54.67;;;16.73;;
34783;SDS011;20998;51.388;7.032;2023-05-10T06:40:24;58.97;;;17.03;;
34783;SDS011;20998;51.388;7.032;2023-05-10T06:42:51;55.93;;;18.23;;
34783;SDS011;20998;51.388;7.032;2023-05-10T06:45:17;68.10;;;18.33;;
34783;SDS011;20998;51.388;7.032;2023-05-10T06:47:43;66.53;;;19.40;;
34783;SDS011;20998;51.388;7.032;2023-05-10T06:50:09;61.77;;;19.20;;
34783;SDS011;20998;51.388;7.032;2023-05-10T06:52:36;70.30;;;21.77;;
34783;SDS011;20998;51.388;7.032;2023-05-10T06:55:02;73.57;;;21.53;;
34783;SDS011;20998;51.388;7.032;2023-05-10T06:57:29;66.57;;;20.03;;
34783;SDS011;20998;51.388;7.032;2023-05-10T06:59:55;71.53;;;21.07;;
34783;SDS011;20998;51.388;7.032;2023-05-10T07:02:21;81.47;;;20.40;;
34783;SDS011;20998;51.388;7.032;2023-05-10T07:04:47;67.57;;;19.23;;
34783;SDS011;20998;51.388;7.032;2023-05-10T07:07:14;50.57;;;17.60;;
34783;SDS011;20998;51.388;7.032;2023-05-10T07:09:40;58.20;;;17.93;;
34783;SDS011;20998;51.388;7.032;2023-05-10T07:12:06;57.10;;;16.17;;
34783;SDS011;20998;51.388;7.032;2023-05-10T07:14:32;62.90;;;18.23;;
34783;SDS011;20998;51.388;7.032;2023-05-10T07:16:58;50.20;;;16.17;;
34783;SDS011;20998;51.388;7.032;2023-05-10T07:19:23;43.90;;;15.40;;
34783;SDS011;20998;51.388;7.032;2023-05-10T07:21:49;54.17;;;16.37;;
34783;SDS011;20998;51.388;7.032;2023-05-10T07:24:15;57.83;;;16.47;;
34783;SDS011;20998;51.388;7.032;2023-05-10T07:26:41;55.57;;;17.97;;
34783;SDS011;20998;51.388;7.032;2023-05-10T07:29:07;58.37;;;16.40;;
34783;SDS011;20998;51.388;7.032;2023-05-10T07:31:33;44.40;;;14.70;;
34783;SDS011;20998;51.388;7.032;2023-05-10T07:34:00;44.20;;;14.73;;
34783;SDS011;20998;51.388;7.032;2023-05-10T07:36:25;43.37;;;15.73;;
34783;SDS011;20998;51.388;7.032;2023-05-10T07:38:51;39.67;;;14.33;;
34783;SDS011;20998;51.388;7.032;2023-05-10T07:41:17;45.73;;;14.60;;
34783;SDS011;20998;51.388;7.032;2023-05-10T07:43:43;42.70;;;15.33;;
34783;SDS011;20998;51.388;7.032;2023-05-10T07:46:09;34.63;;;14.13;;
34783;SDS011;20998;51.388;7.032;2023-05-10T07:48:36;43.53;;;15.90;;
34783;SDS011;20998;51.388;7.032;2023-05-10T07:51:02;32.00;;;14.00;;
34783;SDS011;20998;51.388;7.032;2023-05-10T07:53:28;42.33;;;15.03;;
34783;SDS011;20998;51.388;7.032;2023-05-10T07:55:54;38.90;;;15.07;;
34783;SDS011;20998;51.388;7.032;2023-05-10T07:58:23;36.27;;;14.67;;
34783;SDS011;20998;51.388;7.032;2023-05-10T08:00:49;36.70;;;14.37;;
34783;SDS011;20998;51.388;7.032;2023-05-10T08:03:15;30.70;;;12.40;;
34783;SDS011;20998;51.388;7.032;2023-05-10T08:05:41;33.43;;;13.13;;
34783;SDS011;20998;51.388;7.032;2023-05-10T08:08:07;36.00;;;11.70;;
34783;SDS011;20998;51.388;7.032;2023-05-10T08:10:33;30.03;;;11.97;;
34783;SDS011;20998;51.388;7.032;2023-05-10T08:12:59;37.60;;;12.03;;
34783;SDS011;20998;51.388;7.032;2023-05-10T08:15:25;26.37;;;11.03;;
34783;SDS011;20998;51.388;7.032;2023-05-10T08:17:51;28.30;;;9.53;;
34783;SDS011;20998;51.388;7.032;2023-05-10T08:20:17;21.07;;;9.30;;
34783;SDS011;20998;51.388;7.032;2023-05-10T08:22:44;24.43;;;10.73;;
34783;SDS011;20998;51.388;7.032;2023-05-10T08:25:10;26.87;;;9.80;;
34783;SDS011;20998;51.388;7.032;2023-05-10T08:27:36;25.33;;;10.50;;
34783;SDS011;20998;51.388;7.032;2023-05-10T08:30:02;31.07;;;10.80;;
34783;SDS011;20998;51.388;7.032;2023-05-10T08:32:28;23.70;;;9.43;;
34783;SDS011;20998;51.388;7.032;2023-05-10T08:34:54;25.13;;;11.40;;
34783;SDS011;20998;51.388;7.032;2023-05-10T08:37:22;28.27;;;10.43;;
34783;SDS011;20998;51.388;7.032;2023-05-10T08:39:48;20.23;;;9.97;;
34783;SDS011;20998;51.388;7.032;2023-05-10T08:42:15;28.87;;;10.90;;
34783;SDS011;20998;51.388;7.032;2023-05-10T08:44:45;26.70;;;10.17;;
34783;SDS011;20998;51.388;7.032;2023-05-10T08:47:13;40.83;;;11.23;;
34783;SDS011;20998;51.388;7.032;2023-05-10T08:49:41;31.80;;;12.27;;
34783;SDS011;20998;51.388;7.032;2023-05-10T08:52:09;31.70;;;11.60;;
34783;SDS011;20998;51.388;7.032;2023-05-10T08:54:38;23.90;;;9.87;;
34783;SDS011;20998;51.388;7.032;2023-05-10T08:57:04;27.57;;;11.37;;
34783;SDS011;20998;51.388;7.032;2023-05-10T08:59:30;25.40;;;10.37;;
34783;SDS011;20998;51.388;7.032;2023-05-10T09:01:57;28.77;;;10.70;;
34783;SDS011;20998;51.388;7.032;2023-05-10T09:04:24;31.33;;;11.23;;
34783;SDS011;20998;51.388;7.032;2023-05-10T09:06:50;25.47;;;10.93;;
34783;SDS011;20998;51.388;7.032;2023-05-10T09:09:16;35.27;;;12.37;;
34783;SDS011;20998;51.388;7.032;2023-05-10T09:11:43;31.23;;;11.73;;
34783;SDS011;20998;51.388;7.032;2023-05-10T09:14:09;31.00;;;12.00;;
34783;SDS011;20998;51.388;7.032;2023-05-10T09:16:37;25.70;;;11.30;;
34783;SDS011;20998;51.388;7.032;2023-05-10T09:19:03;29.03;;;10.63;;
34783;SDS011;20998;51.388;7.032;2023-05-10T09:21:29;30.50;;;11.40;;
34783;SDS011;20998;51.388;7.032;2023-05-10T09:23:56;25.53;;;9.60;;
34783;SDS011;20998;51.388;7.032;2023-05-10T09:26:23;27.20;;;10.30;;
34783;SDS011;20998;51.388;7.032;2023-05-10T09:31:18;26.43;;;11.60;;
34783;SDS011;20998;51.388;7.032;2023-05-10T09:33:45;39.90;;;14.23;;
34783;SDS011;20998;51.388;7.032;2023-05-10T09:36:12;31.57;;;12.23;;
34783;SDS011;20998;51.388;7.032;2023-05-10T09:38:44;25.43;;;11.57;;
34783;SDS011;20998;51.388;7.032;2023-05-10T09:41:17;29.30;;;12.50;;
34783;SDS011;20998;51.388;7.032;2023-05-10T09:43:46;29.80;;;11.60;;
34783;SDS011;20998;51.388;7.032;2023-05-10T09:46:13;33.17;;;12.70;;
34783;SDS011;20998;51.388;7.032;2023-05-10T09:48:43;33.37;;;11.17;;
34783;SDS011;20998;51.388;7.032;2023-05-10T09:51:09;26.93;;;11.60;;
34783;SDS011;20998;51.388;7.032;2023-05-10T09:53:35;25.70;;;10.57;;
34783;SDS011;20998;51.388;7.032;2023-05-10T09:56:02;22.97;;;10.40;;
34783;SDS011;20998;51.388;7.032;2023-05-10T09:58:28;26.97;;;11.50;;
34783;SDS011;20998;51.388;7.032;2023-05-10T10:00:54;32.13;;;12.00;;
34783;SDS011;20998;51.388;7.032;2023-05-10T10:03:20;31.17;;;12.37;;
34783;SDS011;20998;51.388;7.032;2023-05-10T10:05:46;22.43;;;10.83;;
34783;SDS011;20998;51.388;7.032;2023-05-10T10:08:13;30.00;;;11.47;;
34783;SDS011;20998;51.388;7.032;2023-05-10T10:10:40;23.27;;;11.10;;
34783;SDS011;20998;51.388;7.032;2023-05-10T10:13:06;26.57;;;10.27;;
34783;SDS011;20998;51.388;7.032;2023-05-10T10:15:33;25.50;;;10.47;;
34783;SDS011;20998;51.388;7.032;2023-05-10T10:17:59;27.50;;;10.87;;
34783;SDS011;20998;51.388;7.032;2023-05-10T10:20:25;26.10;;;10.47;;
34783;SDS011;20998;51.388;7.032;2023-05-10T10:22:52;17.17;;;8.93;;
34783;SDS011;20998;51.388;7.032;2023-05-10T10:25:19;15.80;;;9.00;;
34783;SDS011;20998;51.388;7.032;2023-05-10T10:35:29;17.60;;;8.20;;
34783;SDS011;20998;51.388;7.032;2023-05-10T10:37:55;12.90;;;8.03;;
34783;SDS011;20998;51.388;7.032;2023-05-10T10:40:22;14.93;;;8.13;;
34783;SDS011;20998;51.388;7.032;2023-05-10T10:42:51;14.60;;;7.77;;
34783;SDS011;20998;51.388;7.032;2023-05-10T10:45:18;14.57;;;9.17;;
34783;SDS011;20998;51.388;7.032;2023-05-10T10:47:44;14.33;;;8.47;;
34783;SDS011;20998;51.388;7.032;2023-05-10T10:50:11;19.60;;;7.97;;
34783;SDS011;20998;51.388;7.032;2023-05-10T10:52:44;20.90;;;9.03;;
34783;SDS011;20998;51.388;7.032;2023-05-10T10:55:14;16.93;;;8.43;;
34783;SDS011;20998;51.388;7.032;2023-05-10T10:57:44;18.73;;;7.57;;
34783;SDS011;20998;51.388;7.032;2023-05-10T11:00:18;14.87;;;8.70;;
34783;SDS011;20998;51.388;7.032;2023-05-10T11:02:48;17.83;;;8.83;;
34783;SDS011;20998;51.388;7.032;2023-05-10T11:10:51;20.17;;;9.90;;
34783;SDS011;20998;51.388;7.032;2023-05-10T11:13:42;20.83;;;8.93;;
34783;SDS011;20998;51.388;7.032;2023-05-10T11:16:13;17.60;;;9.67;;
34783;SDS011;20998;51.388;7.032;2023-05-10T11:18:39;19.20;;;10.20;;
34783;SDS011;20998;51.388;7.032;2023-05-10T11:21:06;25.87;;;10.70;;
34783;SDS011;20998;51.388;7.032;2023-05-10T11:26:13;18.27;;;9.60;;
34783;SDS011;20998;51.388;7.032;2023-05-10T11:28:45;17.47;;;9.07;;
34783;SDS011;20998;51.388;7.032;2023-05-10T11:31:18;14.83;;;7.63;;
34783;SDS011;20998;51.388;7.032;2023-05-10T11:36:11;14.40;;;8.07;;
34783;SDS011;20998;51.388;7.032;2023-05-10T11:38:38;15.50;;;7.63;;
34783;SDS011;20998;51.388;7.032;2023-05-10T11:41:04;18.57;;;9.23;;
34783;SDS011;20998;51.388;7.032;2023-05-10T11:43:30;13.13;;;7.67;;
34783;SDS011;20998;51.388;7.032;2023-05-10T11:45:57;12.87;;;7.87;;
34783;SDS011;20998;51.388;7.032;2023-05-10T11:48:23;12.03;;;7.33;;
34783;SDS011;20998;51.388;7.032;2023-05-10T11:50:49;21.53;;;7.83;;
34783;SDS011;20998;51.388;7.032;2023-05-10T11:53:15;13.43;;;7.10;;
34783;SDS011;20998;51.388;7.032;2023-05-10T11:55:41;13.50;;;6.70;;
34783;SDS011;20998;51.388;7.032;2023-05-10T11:58:07;11.10;;;6.70;;
34783;SDS011;20998;51.388;7.032;2023-05-10T12:00:33;14.47;;;7.13;;
34783;SDS011;20998;51.388;7.032;2023-05-10T12:03:00;14.67;;;7.00;;
34783;SDS011;20998;51.388;7.032;2023-05-10T12:05:26;15.13;;;6.97;;
34783;SDS011;20998;51.388;7.032;2023-05-10T12:07:52;10.67;;;7.63;;
34783;SDS011;20998;51.388;7.032;2023-05-10T12:10:18;11.37;;;6.93;;
34783;SDS011;20998;51.388;7.032;2023-05-10T12:12:51;14.10;;;7.27;;
34783;SDS011;20998;51.388;7.032;2023-05-10T12:15:18;16.47;;;7.67;;
34783;SDS011;20998;51.388;7.032;2023-05-10T12:17:45;12.20;;;7.03;;
34783;SDS011;20998;51.388;7.032;2023-05-10T12:22:43;16.43;;;7.77;;
34783;SDS011;20998;51.388;7.032;2023-05-10T12:25:14;13.40;;;7.33;;
34783;SDS011;20998;51.388;7.032;2023-05-10T12:27:41;12.83;;;7.23;;
34783;SDS011;20998;51.388;7.032;2023-05-10T12:30:07;13.97;;;7.83;;
34783;SDS011;20998;51.388;7.032;2023-05-10T12:32:39;12.27;;;7.20;;
34783;SDS011;20998;51.388;7.032;2023-05-10T12:35:06;10.80;;;6.67;;
34783;SDS011;20998;51.388;7.032;2023-05-10T12:37:33;15.80;;;7.13;;
34783;SDS011;20998;51.388;7.032;2023-05-10T12:40:00;16.50;;;7.77;;
34783;SDS011;20998;51.388;7.032;2023-05-10T12:42:27;14.47;;;8.70;;
34783;SDS011;20998;51.388;7.032;2023-05-10T12:44:55;13.90;;;8.33;;
34783;SDS011;20998;51.388;7.032;2023-05-10T12:47:21;17.63;;;8.03;;
34783;SDS011;20998;51.388;7.032;2023-05-10T12:49:47;13.97;;;8.00;;
34783;SDS011;20998;51.388;7.032;2023-05-10T12:52:13;16.87;;;7.60;;
34783;SDS011;20998;51.388;7.032;2023-05-10T12:54:39;12.43;;;7.93;;
34783;SDS011;20998;51.388;7.032;2023-05-10T12:57:04;14.03;;;8.00;;
34783;SDS011;20998;51.388;7.032;2023-05-10T12:59:30;20.00;;;8.73;;
34783;SDS011;20998;51.388;7.032;2023-05-10T13:01:57;16.00;;;7.93;;
34783;SDS011;20998;51.388;7.032;2023-05-10T13:04:22;13.57;;;7.53;;
34783;SDS011;20998;51.388;7.032;2023-05-10T13:06:48;14.97;;;7.40;;
34783;SDS011;20998;51.388;7.032;2023-05-10T13:09:14;17.20;;;7.50;;
34783;SDS011;20998;51.388;7.032;2023-05-10T13:11:40;11.37;;;7.53;;
34783;SDS011;20998;51.388;7.032;2023-05-10T13:14:06;13.80;;;6.93;;
34783;SDS011;20998;51.388;7.032;2023-05-10T13:16:32;9.47;;;6.20;;
34783;SDS011;20998;51.388;7.032;2023-05-10T13:18:58;9.50;;;6.03;;
34783;SDS011;20998;51.388;7.032;2023-05-10T13:21:24;9.40;;;6.00;;
34783;SDS011;20998;51.388;7.032;2023-05-10T13:23:50;10.87;;;5.73;;
34783;SDS011;20998;51.388;7.032;2023-05-10T13:26:16;11.60;;;5.23;;
34783;SDS011;20998;51.388;7.032;2023-05-10T13:28:43;8.93;;;5.60;;
34783;SDS011;20998;51.388;7.032;2023-05-10T13:31:09;7.30;;;5.00;;
34783;SDS011;20998;51.388;7.032;2023-05-10T13:33:35;10.10;;;5.00;;
34783;SDS011;20998;51.388;7.032;2023-05-10T13:36:01;7.30;;;5.03;;
34783;SDS011;20998;51.388;7.032;2023-05-10T13:38:27;7.27;;;4.30;;
34783;SDS011;20998;51.388;7.032;2023-05-10T13:40:53;10.73;;;4.67;;
34783;SDS011;20998;51.388;7.032;2023-05-10T13:43:19;6.33;;;4.70;;
34783;SDS011;20998;51.388;7.032;2023-05-10T13:45:45;8.40;;;4.33;;
34783;SDS011;20998;51.388;7.032;2023-05-10T13:48:11;7.70;;;4.93;;
34783;SDS011;20998;51.388;7.032;2023-05-10T13:50:37;9.67;;;4.57;;
34783;SDS011;20998;51.388;7.032;2023-05-10T13:53:03;9.10;;;4.77;;
34783;SDS011;20998;51.388;7.032;2023-05-10T13:55:30;7.83;;;5.07;;
34783;SDS011;20998;51.388;7.032;2023-05-10T13:57:56;8.73;;;5.10;;
34783;SDS011;20998;51.388;7.032;2023-05-10T14:00:22;7.80;;;5.23;;
34783;SDS011;20998;51.388;7.032;2023-05-10T14:02:48;8.07;;;4.93;;
34783;SDS011;20998;51.388;7.032;2023-05-10T14:05:14;8.17;;;5.53;;
34783;SDS011;20998;51.388;7.032;2023-05-10T14:07:40;6.50;;;4.73;;
34783;SDS011;20998;51.388;7.032;2023-05-10T14:10:06;10.27;;;4.70;;
34783;SDS011;20998;51.388;7.032;2023-05-10T14:12:32;9.57;;;5.53;;
34783;SDS011;20998;51.388;7.032;2023-05-10T14:14:57;7.23;;;4.80;;
34783;SDS011;20998;51.388;7.032;2023-05-10T14:17:23;7.30;;;4.60;;
34783;SDS011;20998;51.388;7.032;2023-05-10T14:19:49;8.97;;;6.17;;
34783;SDS011;20998;51.388;7.032;2023-05-10T14:22:15;8.27;;;5.00;;
34783;SDS011;20998;51.388;7.032;2023-05-10T14:24:41;12.20;;;6.17;;
34783;SDS011;20998;51.388;7.032;2023-05-10T14:27:11;11.47;;;5.70;;
34783;SDS011;20998;51.388;7.032;2023-05-10T14:29:37;10.77;;;5.33;;
34783;SDS011;20998;51.388;7.032;2023-05-10T14:32:03;11.03;;;5.23;;
34783;SDS011;20998;51.388;7.032;2023-05-10T14:34:29;9.80;;;5.87;;
34783;SDS011;20998;51.388;7.032;2023-05-10T14:36:54;8.97;;;6.07;;
34783;SDS011;20998;51.388;7.032;2023-05-10T14:39:21;8.97;;;5.37;;
34783;SDS011;20998;51.388;7.032;2023-05-10T14:41:47;9.53;;;5.37;;
34783;SDS011;20998;51.388;7.032;2023-05-10T14:44:13;12.57;;;5.90;;
34783;SDS011;20998;51.388;7.032;2023-05-10T14:46:40;8.80;;;5.90;;
34783;SDS011;20998;51.388;7.032;2023-05-10T14:49:06;12.77;;;5.97;;
34783;SDS011;20998;51.388;7.032;2023-05-10T14:51:32;10.43;;;5.93;;
34783;SDS011;20998;51.388;7.032;2023-05-10T14:53:59;12.37;;;6.97;;
34783;SDS011;20998;51.388;7.032;2023-05-10T14:56:25;8.63;;;6.17;;
34783;SDS011;20998;51.388;7.032;2023-05-10T14:58:52;8.57;;;5.90;;
34783;SDS011;20998;51.388;7.032;2023-05-10T15:01:18;11.73;;;6.47;;
34783;SDS011;20998;51.388;7.032;2023-05-10T15:03:44;7.63;;;5.67;;
34783;SDS011;20998;51.388;7.032;2023-05-10T15:06:13;10.30;;;5.80;;
34783;SDS011;20998;51.388;7.032;2023-05-10T15:08:41;12.03;;;6.00;;
34783;SDS011;20998;51.388;7.032;2023-05-10T15:11:06;10.10;;;6.73;;